sensor_id;sensor_type;location;lat;lon;timestamp;P1;durP1;ratioP1;P2;durP2;ratioP2
65328;SDS011;51941;52.210;5.158;2022-11-14T00:00:11;13.38;;;9.35;;
65328;SDS011;51941;52.210;5.158;2022-11-14T00:02:58;14.88;;;10.05;;
65328;SDS011;51941;52.210;5.158;2022-11-14T00:05:44;16.25;;;10.85;;
65328;SDS011;51941;52.210;5.158;2022-11-14T00:08:29;17.40;;;10.93;;
65328;SDS011;51941;52.210;5.158;2022-11-14T00:11:15;13.35;;;9.98;;
65328;SDS011;51941;52.210;5.158;2022-11-14T00:14:01;18.80;;;10.63;;
65328;SDS011;51941;52.210;5.158;2022-11-14T00:16:47;18.70;;;11.40;;
65328;SDS011;51941;52.210;5.158;2022-11-14T00:19:32;14.73;;;10.95;;
65328;SDS011;51941;52.210;5.158;2022-11-14T00:22:17;19.00;;;12.32;;
65328;SDS011;51941;52.210;5.158;2022-11-14T00:25:03;18.88;;;12.48;;
65328;SDS011;51941;52.210;5.158;2022-11-14T00:27:49;17.58;;;12.07;;
65328;SDS011;51941;52.210;5.158;2022-11-14T00:30:35;20.25;;;12.07;;
65328;SDS011;51941;52.210;5.158;2022-11-14T00:33:21;21.65;;;13.93;;
65328;SDS011;51941;52.210;5.158;2022-11-14T00:36:06;19.75;;;11.73;;
65328;SDS011;51941;52.210;5.158;2022-11-14T00:38:52;22.23;;;14.05;;
65328;SDS011;51941;52.210;5.158;2022-11-14T00:41:38;21.58;;;13.38;;
65328;SDS011;51941;52.210;5.158;2022-11-14T00:44:23;22.55;;;14.52;;
65328;SDS011;51941;52.210;5.158;2022-11-14T00:47:10;21.85;;;14.20;;
65328;SDS011;51941;52.210;5.158;2022-11-14T00:49:56;21.75;;;14.70;;
65328;SDS011;51941;52.210;5.158;2022-11-14T00:52:41;23.67;;;15.43;;
65328;SDS011;51941;52.210;5.158;2022-11-14T00:55:26;28.05;;;15.80;;
65328;SDS011;51941;52.210;5.158;2022-11-14T00:58:12;23.20;;;14.63;;
65328;SDS011;51941;52.210;5.158;2022-11-14T01:00:57;25.65;;;15.23;;
65328;SDS011;51941;52.210;5.158;2022-11-14T01:03:44;21.70;;;14.48;;
65328;SDS011;51941;52.210;5.158;2022-11-14T01:06:31;30.33;;;18.27;;
65328;SDS011;51941;52.210;5.158;2022-11-14T01:09:17;27.80;;;17.10;;
65328;SDS011;51941;52.210;5.158;2022-11-14T01:12:03;28.27;;;17.88;;
65328;SDS011;51941;52.210;5.158;2022-11-14T01:14:48;31.65;;;19.38;;
65328;SDS011;51941;52.210;5.158;2022-11-14T01:17:34;28.80;;;18.02;;
65328;SDS011;51941;52.210;5.158;2022-11-14T01:20:20;32.17;;;19.38;;
65328;SDS011;51941;52.210;5.158;2022-11-14T01:23:06;30.13;;;18.77;;
65328;SDS011;51941;52.210;5.158;2022-11-14T01:25:51;31.23;;;18.92;;
65328;SDS011;51941;52.210;5.158;2022-11-14T01:28:37;27.60;;;17.42;;
65328;SDS011;51941;52.210;5.158;2022-11-14T01:31:23;32.25;;;18.60;;
65328;SDS011;51941;52.210;5.158;2022-11-14T01:34:09;29.98;;;19.67;;
65328;SDS011;51941;52.210;5.158;2022-11-14T01:36:55;28.60;;;19.15;;
65328;SDS011;51941;52.210;5.158;2022-11-14T01:39:40;30.83;;;19.65;;
65328;SDS011;51941;52.210;5.158;2022-11-14T01:42:26;26.90;;;17.25;;
65328;SDS011;51941;52.210;5.158;2022-11-14T01:48:39;35.65;;;20.48;;
65328;SDS011;51941;52.210;5.158;2022-11-14T01:51:28;34.67;;;21.10;;
65328;SDS011;51941;52.210;5.158;2022-11-14T01:54:19;34.55;;;21.63;;
65328;SDS011;51941;52.210;5.158;2022-11-14T01:57:07;35.30;;;21.83;;
65328;SDS011;51941;52.210;5.158;2022-11-14T01:59:56;38.60;;;22.63;;
65328;SDS011;51941;52.210;5.158;2022-11-14T02:02:44;39.55;;;23.60;;
65328;SDS011;51941;52.210;5.158;2022-11-14T02:05:30;41.83;;;24.42;;
65328;SDS011;51941;52.210;5.158;2022-11-14T02:08:16;34.63;;;20.98;;
65328;SDS011;51941;52.210;5.158;2022-11-14T02:11:04;34.15;;;20.45;;
65328;SDS011;51941;52.210;5.158;2022-11-14T02:13:49;36.92;;;22.20;;
65328;SDS011;51941;52.210;5.158;2022-11-14T02:16:35;35.17;;;20.65;;
65328;SDS011;51941;52.210;5.158;2022-11-14T02:19:21;32.25;;;19.33;;
65328;SDS011;51941;52.210;5.158;2022-11-14T02:22:08;33.15;;;19.95;;
65328;SDS011;51941;52.210;5.158;2022-11-14T02:24:53;34.38;;;20.70;;
65328;SDS011;51941;52.210;5.158;2022-11-14T02:27:39;36.55;;;21.90;;
65328;SDS011;51941;52.210;5.158;2022-11-14T02:30:25;36.20;;;21.95;;
65328;SDS011;51941;52.210;5.158;2022-11-14T02:33:10;38.25;;;22.90;;
65328;SDS011;51941;52.210;5.158;2022-11-14T02:35:56;34.72;;;21.55;;
65328;SDS011;51941;52.210;5.158;2022-11-14T02:38:43;37.95;;;21.55;;
65328;SDS011;51941;52.210;5.158;2022-11-14T02:41:28;40.95;;;23.27;;
65328;SDS011;51941;52.210;5.158;2022-11-14T02:44:13;40.47;;;24.17;;
65328;SDS011;51941;52.210;5.158;2022-11-14T02:46:59;39.95;;;22.23;;
65328;SDS011;51941;52.210;5.158;2022-11-14T02:49:44;44.78;;;24.95;;
65328;SDS011;51941;52.210;5.158;2022-11-14T02:52:29;44.03;;;25.05;;
65328;SDS011;51941;52.210;5.158;2022-11-14T02:55:16;45.72;;;25.15;;
65328;SDS011;51941;52.210;5.158;2022-11-14T02:58:02;44.63;;;25.27;;
65328;SDS011;51941;52.210;5.158;2022-11-14T03:00:47;45.28;;;25.65;;
65328;SDS011;51941;52.210;5.158;2022-11-14T03:03:33;41.95;;;23.40;;
65328;SDS011;51941;52.210;5.158;2022-11-14T03:06:19;50.20;;;27.45;;
65328;SDS011;51941;52.210;5.158;2022-11-14T03:09:04;45.70;;;26.00;;
65328;SDS011;51941;52.210;5.158;2022-11-14T03:11:51;50.67;;;25.90;;
65328;SDS011;51941;52.210;5.158;2022-11-14T03:14:36;48.17;;;26.70;;
65328;SDS011;51941;52.210;5.158;2022-11-14T03:17:21;46.10;;;24.83;;
65328;SDS011;51941;52.210;5.158;2022-11-14T03:20:07;46.70;;;25.40;;
65328;SDS011;51941;52.210;5.158;2022-11-14T03:22:53;45.70;;;26.10;;
65328;SDS011;51941;52.210;5.158;2022-11-14T03:25:38;46.15;;;24.85;;
65328;SDS011;51941;52.210;5.158;2022-11-14T03:28:25;43.30;;;25.10;;
65328;SDS011;51941;52.210;5.158;2022-11-14T03:31:11;43.75;;;25.35;;
65328;SDS011;51941;52.210;5.158;2022-11-14T03:33:58;49.75;;;26.00;;
65328;SDS011;51941;52.210;5.158;2022-11-14T03:36:43;47.78;;;25.02;;
65328;SDS011;51941;52.210;5.158;2022-11-14T03:39:29;44.30;;;24.80;;
65328;SDS011;51941;52.210;5.158;2022-11-14T03:42:14;45.92;;;25.23;;
65328;SDS011;51941;52.210;5.158;2022-11-14T03:45:01;53.38;;;28.65;;
65328;SDS011;51941;52.210;5.158;2022-11-14T03:47:46;53.88;;;27.55;;
65328;SDS011;51941;52.210;5.158;2022-11-14T03:50:32;54.60;;;28.83;;
65328;SDS011;51941;52.210;5.158;2022-11-14T03:53:17;52.75;;;27.60;;
65328;SDS011;51941;52.210;5.158;2022-11-14T03:56:03;47.80;;;27.13;;
65328;SDS011;51941;52.210;5.158;2022-11-14T03:58:48;48.92;;;26.48;;
65328;SDS011;51941;52.210;5.158;2022-11-14T04:01:35;55.45;;;28.85;;
65328;SDS011;51941;52.210;5.158;2022-11-14T04:04:20;50.00;;;26.50;;
65328;SDS011;51941;52.210;5.158;2022-11-14T04:07:06;47.08;;;26.30;;
65328;SDS011;51941;52.210;5.158;2022-11-14T04:09:51;41.25;;;22.95;;
65328;SDS011;51941;52.210;5.158;2022-11-14T04:12:36;44.13;;;22.98;;
65328;SDS011;51941;52.210;5.158;2022-11-14T04:15:22;49.17;;;26.50;;
65328;SDS011;51941;52.210;5.158;2022-11-14T04:18:08;46.15;;;25.10;;
65328;SDS011;51941;52.210;5.158;2022-11-14T04:20:54;48.25;;;25.50;;
65328;SDS011;51941;52.210;5.158;2022-11-14T04:23:39;43.92;;;24.33;;
65328;SDS011;51941;52.210;5.158;2022-11-14T04:26:24;46.72;;;24.00;;
65328;SDS011;51941;52.210;5.158;2022-11-14T04:29:09;48.72;;;25.80;;
65328;SDS011;51941;52.210;5.158;2022-11-14T04:31:55;55.28;;;28.13;;
65328;SDS011;51941;52.210;5.158;2022-11-14T04:34:41;51.65;;;27.05;;
65328;SDS011;51941;52.210;5.158;2022-11-14T04:37:27;50.15;;;26.13;;
65328;SDS011;51941;52.210;5.158;2022-11-14T04:40:12;51.40;;;26.20;;
65328;SDS011;51941;52.210;5.158;2022-11-14T04:42:58;55.92;;;27.92;;
65328;SDS011;51941;52.210;5.158;2022-11-14T04:45:43;45.75;;;23.05;;
65328;SDS011;51941;52.210;5.158;2022-11-14T04:48:28;45.67;;;24.38;;
65328;SDS011;51941;52.210;5.158;2022-11-14T04:51:15;54.42;;;26.77;;
65328;SDS011;51941;52.210;5.158;2022-11-14T04:54:00;48.13;;;24.80;;
65328;SDS011;51941;52.210;5.158;2022-11-14T04:56:46;51.40;;;25.08;;
65328;SDS011;51941;52.210;5.158;2022-11-14T04:59:32;46.15;;;24.55;;
65328;SDS011;51941;52.210;5.158;2022-11-14T05:02:17;49.88;;;26.10;;
65328;SDS011;51941;52.210;5.158;2022-11-14T05:05:03;42.30;;;22.42;;
65328;SDS011;51941;52.210;5.158;2022-11-14T05:07:49;51.28;;;25.75;;
65328;SDS011;51941;52.210;5.158;2022-11-14T05:10:35;46.75;;;25.08;;
65328;SDS011;51941;52.210;5.158;2022-11-14T05:13:20;39.97;;;21.70;;
65328;SDS011;51941;52.210;5.158;2022-11-14T05:16:05;40.60;;;21.42;;
65328;SDS011;51941;52.210;5.158;2022-11-14T05:18:51;50.05;;;26.42;;
65328;SDS011;51941;52.210;5.158;2022-11-14T05:21:37;44.45;;;23.23;;
65328;SDS011;51941;52.210;5.158;2022-11-14T05:24:24;40.47;;;21.73;;
65328;SDS011;51941;52.210;5.158;2022-11-14T05:27:11;47.65;;;23.35;;
65328;SDS011;51941;52.210;5.158;2022-11-14T05:29:56;41.97;;;22.35;;
65328;SDS011;51941;52.210;5.158;2022-11-14T05:32:41;40.78;;;21.08;;
65328;SDS011;51941;52.210;5.158;2022-11-14T05:35:27;35.08;;;19.10;;
65328;SDS011;51941;52.210;5.158;2022-11-14T05:38:12;47.80;;;23.52;;
65328;SDS011;51941;52.210;5.158;2022-11-14T05:41:00;43.55;;;22.48;;
65328;SDS011;51941;52.210;5.158;2022-11-14T05:43:49;42.20;;;22.17;;
65328;SDS011;51941;52.210;5.158;2022-11-14T05:46:34;43.88;;;23.27;;
65328;SDS011;51941;52.210;5.158;2022-11-14T05:49:20;51.05;;;26.27;;
65328;SDS011;51941;52.210;5.158;2022-11-14T05:52:05;47.35;;;24.83;;
65328;SDS011;51941;52.210;5.158;2022-11-14T05:54:50;45.15;;;23.27;;
65328;SDS011;51941;52.210;5.158;2022-11-14T05:57:37;46.83;;;24.15;;
65328;SDS011;51941;52.210;5.158;2022-11-14T06:00:22;42.53;;;22.33;;
65328;SDS011;51941;52.210;5.158;2022-11-14T06:03:07;46.17;;;23.42;;
65328;SDS011;51941;52.210;5.158;2022-11-14T06:05:53;37.95;;;20.23;;
65328;SDS011;51941;52.210;5.158;2022-11-14T06:08:38;42.22;;;21.23;;
65328;SDS011;51941;52.210;5.158;2022-11-14T06:11:24;48.28;;;24.20;;
65328;SDS011;51941;52.210;5.158;2022-11-14T06:14:11;47.13;;;24.05;;
65328;SDS011;51941;52.210;5.158;2022-11-14T06:16:57;44.45;;;23.00;;
65328;SDS011;51941;52.210;5.158;2022-11-14T06:19:42;47.45;;;24.38;;
65328;SDS011;51941;52.210;5.158;2022-11-14T06:22:27;48.75;;;24.67;;
65328;SDS011;51941;52.210;5.158;2022-11-14T06:25:13;42.45;;;22.20;;
65328;SDS011;51941;52.210;5.158;2022-11-14T06:27:58;42.17;;;22.88;;
65328;SDS011;51941;52.210;5.158;2022-11-14T06:30:45;40.45;;;21.55;;
65328;SDS011;51941;52.210;5.158;2022-11-14T06:33:32;36.75;;;19.70;;
65328;SDS011;51941;52.210;5.158;2022-11-14T06:36:18;39.92;;;19.88;;
65328;SDS011;51941;52.210;5.158;2022-11-14T06:39:04;38.55;;;19.48;;
65328;SDS011;51941;52.210;5.158;2022-11-14T06:41:49;40.45;;;21.00;;
65328;SDS011;51941;52.210;5.158;2022-11-14T06:44:35;37.30;;;20.13;;
65328;SDS011;51941;52.210;5.158;2022-11-14T06:47:22;35.03;;;19.00;;
65328;SDS011;51941;52.210;5.158;2022-11-14T06:50:07;35.83;;;18.65;;
65328;SDS011;51941;52.210;5.158;2022-11-14T06:52:52;37.35;;;19.15;;
65328;SDS011;51941;52.210;5.158;2022-11-14T06:55:38;46.30;;;22.45;;
65328;SDS011;51941;52.210;5.158;2022-11-14T06:58:24;36.33;;;19.60;;
65328;SDS011;51941;52.210;5.158;2022-11-14T07:01:10;44.40;;;21.58;;
65328;SDS011;51941;52.210;5.158;2022-11-14T07:03:58;37.85;;;21.13;;
65328;SDS011;51941;52.210;5.158;2022-11-14T07:06:44;41.72;;;21.98;;
65328;SDS011;51941;52.210;5.158;2022-11-14T07:09:30;41.28;;;21.10;;
65328;SDS011;51941;52.210;5.158;2022-11-14T07:12:15;34.88;;;18.75;;
65328;SDS011;51941;52.210;5.158;2022-11-14T07:15:03;34.95;;;19.08;;
65328;SDS011;51941;52.210;5.158;2022-11-14T07:17:49;40.93;;;21.00;;
65328;SDS011;51941;52.210;5.158;2022-11-14T07:20:36;35.05;;;19.45;;
65328;SDS011;51941;52.210;5.158;2022-11-14T07:23:22;40.67;;;20.60;;
65328;SDS011;51941;52.210;5.158;2022-11-14T07:26:08;37.60;;;19.50;;
65328;SDS011;51941;52.210;5.158;2022-11-14T07:28:54;47.10;;;22.55;;
65328;SDS011;51941;52.210;5.158;2022-11-14T07:31:40;40.03;;;21.23;;
65328;SDS011;51941;52.210;5.158;2022-11-14T07:34:25;40.72;;;21.33;;
65328;SDS011;51941;52.210;5.158;2022-11-14T07:37:12;37.38;;;20.45;;
65328;SDS011;51941;52.210;5.158;2022-11-14T07:39:57;34.65;;;18.33;;
65328;SDS011;51941;52.210;5.158;2022-11-14T07:42:42;37.63;;;18.40;;
65328;SDS011;51941;52.210;5.158;2022-11-14T07:45:28;33.30;;;18.05;;
65328;SDS011;51941;52.210;5.158;2022-11-14T07:48:13;39.95;;;18.75;;
65328;SDS011;51941;52.210;5.158;2022-11-14T07:50:59;32.90;;;18.50;;
65328;SDS011;51941;52.210;5.158;2022-11-14T07:53:46;30.27;;;17.02;;
65328;SDS011;51941;52.210;5.158;2022-11-14T07:56:32;33.08;;;16.08;;
65328;SDS011;51941;52.210;5.158;2022-11-14T07:59:17;49.28;;;24.05;;
65328;SDS011;51941;52.210;5.158;2022-11-14T08:02:02;37.13;;;19.33;;
65328;SDS011;51941;52.210;5.158;2022-11-14T08:04:48;35.35;;;19.00;;
65328;SDS011;51941;52.210;5.158;2022-11-14T08:07:33;34.35;;;17.98;;
65328;SDS011;51941;52.210;5.158;2022-11-14T08:10:20;30.92;;;16.85;;
65328;SDS011;51941;52.210;5.158;2022-11-14T08:13:05;34.38;;;17.80;;
65328;SDS011;51941;52.210;5.158;2022-11-14T08:15:50;33.58;;;18.38;;
65328;SDS011;51941;52.210;5.158;2022-11-14T08:18:36;33.95;;;17.95;;
65328;SDS011;51941;52.210;5.158;2022-11-14T08:21:21;31.52;;;16.70;;
65328;SDS011;51941;52.210;5.158;2022-11-14T08:24:07;36.95;;;18.90;;
65328;SDS011;51941;52.210;5.158;2022-11-14T08:26:54;35.65;;;17.73;;
65328;SDS011;51941;52.210;5.158;2022-11-14T08:29:38;33.72;;;17.58;;
65328;SDS011;51941;52.210;5.158;2022-11-14T08:32:24;30.98;;;16.75;;
65328;SDS011;51941;52.210;5.158;2022-11-14T08:35:09;29.88;;;15.50;;
65328;SDS011;51941;52.210;5.158;2022-11-14T08:37:55;34.20;;;16.85;;
65328;SDS011;51941;52.210;5.158;2022-11-14T08:40:40;31.27;;;16.75;;
65328;SDS011;51941;52.210;5.158;2022-11-14T08:43:27;28.95;;;14.98;;
65328;SDS011;51941;52.210;5.158;2022-11-14T08:46:13;34.38;;;17.00;;
65328;SDS011;51941;52.210;5.158;2022-11-14T08:48:58;27.00;;;14.25;;
65328;SDS011;51941;52.210;5.158;2022-11-14T08:51:43;29.98;;;15.60;;
65328;SDS011;51941;52.210;5.158;2022-11-14T08:54:29;31.73;;;16.77;;
65328;SDS011;51941;52.210;5.158;2022-11-14T08:57:14;29.70;;;16.92;;
65328;SDS011;51941;52.210;5.158;2022-11-14T09:00:01;32.25;;;15.85;;
65328;SDS011;51941;52.210;5.158;2022-11-14T09:02:47;28.95;;;15.45;;
65328;SDS011;51941;52.210;5.158;2022-11-14T09:05:32;35.88;;;17.13;;
65328;SDS011;51941;52.210;5.158;2022-11-14T09:08:18;31.20;;;15.93;;
65328;SDS011;51941;52.210;5.158;2022-11-14T09:11:03;27.33;;;14.23;;
65328;SDS011;51941;52.210;5.158;2022-11-14T09:13:49;23.88;;;13.25;;
65328;SDS011;51941;52.210;5.158;2022-11-14T09:16:36;27.08;;;14.15;;
65328;SDS011;51941;52.210;5.158;2022-11-14T09:19:21;27.98;;;14.93;;
65328;SDS011;51941;52.210;5.158;2022-11-14T09:22:07;22.48;;;12.45;;
65328;SDS011;51941;52.210;5.158;2022-11-14T09:24:52;24.75;;;13.13;;
65328;SDS011;51941;52.210;5.158;2022-11-14T09:27:37;23.52;;;12.60;;
65328;SDS011;51941;52.210;5.158;2022-11-14T09:30:23;24.05;;;12.13;;
65328;SDS011;51941;52.210;5.158;2022-11-14T09:33:09;20.20;;;11.45;;
65328;SDS011;51941;52.210;5.158;2022-11-14T09:35:55;25.48;;;13.27;;
65328;SDS011;51941;52.210;5.158;2022-11-14T09:38:41;23.25;;;12.65;;
65328;SDS011;51941;52.210;5.158;2022-11-14T09:41:31;22.83;;;13.65;;
65328;SDS011;51941;52.210;5.158;2022-11-14T09:44:35;21.85;;;12.38;;
65328;SDS011;51941;52.210;5.158;2022-11-14T09:47:47;22.25;;;12.85;;
65328;SDS011;51941;52.210;5.158;2022-11-14T09:50:37;24.00;;;13.02;;
65328;SDS011;51941;52.210;5.158;2022-11-14T09:53:29;20.15;;;11.15;;
65328;SDS011;51941;52.210;5.158;2022-11-14T09:56:18;19.08;;;10.85;;
65328;SDS011;51941;52.210;5.158;2022-11-14T09:59:07;17.20;;;11.00;;
65328;SDS011;51941;52.210;5.158;2022-11-14T10:01:56;17.38;;;10.88;;
65328;SDS011;51941;52.210;5.158;2022-11-14T10:04:47;20.42;;;11.20;;
65328;SDS011;51941;52.210;5.158;2022-11-14T10:07:44;19.83;;;12.15;;
65328;SDS011;51941;52.210;5.158;2022-11-14T10:13:37;16.60;;;10.32;;
65328;SDS011;51941;52.210;5.158;2022-11-14T10:16:44;15.85;;;10.35;;
65328;SDS011;51941;52.210;5.158;2022-11-14T10:19:39;17.10;;;9.73;;
65328;SDS011;51941;52.210;5.158;2022-11-14T10:22:35;16.42;;;9.70;;
65328;SDS011;51941;52.210;5.158;2022-11-14T10:25:39;15.07;;;9.70;;
65328;SDS011;51941;52.210;5.158;2022-11-14T10:28:42;17.48;;;10.70;;
65328;SDS011;51941;52.210;5.158;2022-11-14T10:31:40;20.55;;;11.50;;
65328;SDS011;51941;52.210;5.158;2022-11-14T10:34:33;18.38;;;10.32;;
65328;SDS011;51941;52.210;5.158;2022-11-14T10:37:27;17.02;;;10.82;;
65328;SDS011;51941;52.210;5.158;2022-11-14T10:40:20;16.52;;;10.38;;
65328;SDS011;51941;52.210;5.158;2022-11-14T10:43:12;19.40;;;10.75;;
65328;SDS011;51941;52.210;5.158;2022-11-14T10:46:04;19.65;;;10.23;;
65328;SDS011;51941;52.210;5.158;2022-11-14T10:48:53;18.67;;;11.13;;
65328;SDS011;51941;52.210;5.158;2022-11-14T10:51:40;18.85;;;10.73;;
65328;SDS011;51941;52.210;5.158;2022-11-14T10:54:30;16.52;;;9.30;;
65328;SDS011;51941;52.210;5.158;2022-11-14T10:57:21;14.73;;;9.88;;
65328;SDS011;51941;52.210;5.158;2022-11-14T11:00:13;16.55;;;9.75;;
65328;SDS011;51941;52.210;5.158;2022-11-14T11:03:01;21.38;;;11.07;;
65328;SDS011;51941;52.210;5.158;2022-11-14T11:05:48;16.20;;;10.23;;
65328;SDS011;51941;52.210;5.158;2022-11-14T11:08:39;17.42;;;10.50;;
65328;SDS011;51941;52.210;5.158;2022-11-14T11:11:58;14.35;;;9.40;;
65328;SDS011;51941;52.210;5.158;2022-11-14T11:14:47;14.77;;;9.65;;
65328;SDS011;51941;52.210;5.158;2022-11-14T11:17:54;14.25;;;9.80;;
65328;SDS011;51941;52.210;5.158;2022-11-14T11:20:40;13.40;;;8.73;;
65328;SDS011;51941;52.210;5.158;2022-11-14T11:23:26;13.13;;;8.82;;
65328;SDS011;51941;52.210;5.158;2022-11-14T11:26:15;12.45;;;8.40;;
65328;SDS011;51941;52.210;5.158;2022-11-14T11:29:04;11.13;;;7.78;;
65328;SDS011;51941;52.210;5.158;2022-11-14T11:31:53;14.98;;;10.27;;
65328;SDS011;51941;52.210;5.158;2022-11-14T11:34:40;14.00;;;9.23;;
65328;SDS011;51941;52.210;5.158;2022-11-14T11:37:26;15.38;;;9.57;;
65328;SDS011;51941;52.210;5.158;2022-11-14T11:40:18;14.43;;;9.85;;
65328;SDS011;51941;52.210;5.158;2022-11-14T11:43:08;16.48;;;10.10;;
65328;SDS011;51941;52.210;5.158;2022-11-14T11:45:57;15.55;;;10.50;;
65328;SDS011;51941;52.210;5.158;2022-11-14T11:51:36;14.52;;;9.68;;
65328;SDS011;51941;52.210;5.158;2022-11-14T11:54:29;12.10;;;8.40;;
65328;SDS011;51941;52.210;5.158;2022-11-14T11:57:22;13.27;;;9.02;;
65328;SDS011;51941;52.210;5.158;2022-11-14T12:00:16;16.67;;;9.68;;
65328;SDS011;51941;52.210;5.158;2022-11-14T12:03:03;12.40;;;8.18;;
65328;SDS011;51941;52.210;5.158;2022-11-14T12:05:59;12.15;;;8.63;;
65328;SDS011;51941;52.210;5.158;2022-11-14T12:09:00;12.45;;;8.63;;
65328;SDS011;51941;52.210;5.158;2022-11-14T12:11:51;14.07;;;8.95;;
65328;SDS011;51941;52.210;5.158;2022-11-14T12:14:47;12.38;;;7.97;;
65328;SDS011;51941;52.210;5.158;2022-11-14T12:17:58;13.88;;;8.43;;
65328;SDS011;51941;52.210;5.158;2022-11-14T12:27:39;11.13;;;8.45;;
65328;SDS011;51941;52.210;5.158;2022-11-14T12:30:32;15.02;;;9.50;;
65328;SDS011;51941;52.210;5.158;2022-11-14T12:33:20;16.60;;;10.25;;
65328;SDS011;51941;52.210;5.158;2022-11-14T12:36:11;12.45;;;9.35;;
65328;SDS011;51941;52.210;5.158;2022-11-14T12:38:56;15.40;;;10.35;;
65328;SDS011;51941;52.210;5.158;2022-11-14T12:41:43;16.30;;;10.60;;
65328;SDS011;51941;52.210;5.158;2022-11-14T12:44:36;17.13;;;11.10;;
65328;SDS011;51941;52.210;5.158;2022-11-14T12:47:24;19.70;;;11.48;;
65328;SDS011;51941;52.210;5.158;2022-11-14T12:53:41;12.13;;;8.30;;
65328;SDS011;51941;52.210;5.158;2022-11-14T12:59:54;17.90;;;12.07;;
65328;SDS011;51941;52.210;5.158;2022-11-14T13:03:00;15.63;;;10.50;;
65328;SDS011;51941;52.210;5.158;2022-11-14T13:06:04;22.08;;;13.70;;
65328;SDS011;51941;52.210;5.158;2022-11-14T13:09:17;16.77;;;10.70;;
65328;SDS011;51941;52.210;5.158;2022-11-14T13:12:23;18.80;;;11.68;;
65328;SDS011;51941;52.210;5.158;2022-11-14T13:15:29;15.98;;;10.88;;
65328;SDS011;51941;52.210;5.158;2022-11-14T13:18:34;16.58;;;11.45;;
65328;SDS011;51941;52.210;5.158;2022-11-14T13:21:38;19.70;;;13.25;;
65328;SDS011;51941;52.210;5.158;2022-11-14T13:25:16;23.35;;;15.05;;
65328;SDS011;51941;52.210;5.158;2022-11-14T13:31:22;25.63;;;17.40;;
65328;SDS011;51941;52.210;5.158;2022-11-14T13:34:27;26.67;;;17.40;;
65328;SDS011;51941;52.210;5.158;2022-11-14T13:37:21;30.98;;;20.08;;
65328;SDS011;51941;52.210;5.158;2022-11-14T13:40:20;30.10;;;19.98;;
65328;SDS011;51941;52.210;5.158;2022-11-14T13:43:13;33.65;;;21.33;;
65328;SDS011;51941;52.210;5.158;2022-11-14T13:46:07;30.00;;;20.55;;
65328;SDS011;51941;52.210;5.158;2022-11-14T13:49:07;38.78;;;21.83;;
65328;SDS011;51941;52.210;5.158;2022-11-14T13:52:06;32.55;;;21.52;;
65328;SDS011;51941;52.210;5.158;2022-11-14T13:54:51;30.48;;;20.02;;
65328;SDS011;51941;52.210;5.158;2022-11-14T13:57:40;33.25;;;19.70;;
65328;SDS011;51941;52.210;5.158;2022-11-14T14:00:41;29.40;;;17.90;;
65328;SDS011;51941;52.210;5.158;2022-11-14T14:03:40;26.33;;;18.10;;
65328;SDS011;51941;52.210;5.158;2022-11-14T14:06:39;27.75;;;17.23;;
65328;SDS011;51941;52.210;5.158;2022-11-14T14:09:36;28.52;;;17.45;;
65328;SDS011;51941;52.210;5.158;2022-11-14T14:12:31;24.08;;;16.10;;
65328;SDS011;51941;52.210;5.158;2022-11-14T14:15:26;29.05;;;18.25;;
65328;SDS011;51941;52.210;5.158;2022-11-14T14:18:19;25.33;;;17.23;;
65328;SDS011;51941;52.210;5.158;2022-11-14T14:21:12;27.08;;;17.83;;
65328;SDS011;51941;52.210;5.158;2022-11-14T14:24:12;34.88;;;21.40;;
65328;SDS011;51941;52.210;5.158;2022-11-14T14:27:16;24.90;;;16.00;;
65328;SDS011;51941;52.210;5.158;2022-11-14T14:30:10;25.40;;;16.00;;
65328;SDS011;51941;52.210;5.158;2022-11-14T14:33:06;30.35;;;18.35;;
65328;SDS011;51941;52.210;5.158;2022-11-14T14:35:55;29.42;;;17.05;;
65328;SDS011;51941;52.210;5.158;2022-11-14T14:38:41;25.13;;;15.98;;
65328;SDS011;51941;52.210;5.158;2022-11-14T14:41:29;25.58;;;16.23;;
65328;SDS011;51941;52.210;5.158;2022-11-14T14:44:17;28.63;;;17.97;;
65328;SDS011;51941;52.210;5.158;2022-11-14T14:47:13;29.83;;;18.05;;
65328;SDS011;51941;52.210;5.158;2022-11-14T14:50:02;26.80;;;17.02;;
65328;SDS011;51941;52.210;5.158;2022-11-14T14:52:54;28.90;;;17.55;;
65328;SDS011;51941;52.210;5.158;2022-11-14T14:55:40;27.38;;;16.30;;
65328;SDS011;51941;52.210;5.158;2022-11-14T14:58:34;29.63;;;18.48;;
65328;SDS011;51941;52.210;5.158;2022-11-14T15:01:21;31.05;;;19.25;;
65328;SDS011;51941;52.210;5.158;2022-11-14T15:04:12;32.65;;;18.73;;
65328;SDS011;51941;52.210;5.158;2022-11-14T15:07:01;28.92;;;17.05;;
65328;SDS011;51941;52.210;5.158;2022-11-14T15:09:51;32.28;;;17.90;;
65328;SDS011;51941;52.210;5.158;2022-11-14T15:12:38;32.90;;;18.17;;
65328;SDS011;51941;52.210;5.158;2022-11-14T15:15:24;31.02;;;17.50;;
65328;SDS011;51941;52.210;5.158;2022-11-14T15:18:13;30.73;;;18.60;;
65328;SDS011;51941;52.210;5.158;2022-11-14T15:21:08;35.33;;;20.13;;
65328;SDS011;51941;52.210;5.158;2022-11-14T15:24:00;32.55;;;17.65;;
65328;SDS011;51941;52.210;5.158;2022-11-14T15:26:47;38.25;;;20.48;;
65328;SDS011;51941;52.210;5.158;2022-11-14T15:29:33;34.63;;;19.73;;
65328;SDS011;51941;52.210;5.158;2022-11-14T15:32:19;34.13;;;20.13;;
65328;SDS011;51941;52.210;5.158;2022-11-14T15:35:07;33.28;;;19.67;;
65328;SDS011;51941;52.210;5.158;2022-11-14T15:37:58;28.23;;;16.33;;
65328;SDS011;51941;52.210;5.158;2022-11-14T15:41:07;31.08;;;18.13;;
65328;SDS011;51941;52.210;5.158;2022-11-14T15:43:54;26.98;;;16.33;;
65328;SDS011;51941;52.210;5.158;2022-11-14T15:46:47;27.50;;;16.20;;
65328;SDS011;51941;52.210;5.158;2022-11-14T15:49:33;35.77;;;22.03;;
65328;SDS011;51941;52.210;5.158;2022-11-14T15:52:20;36.72;;;19.67;;
65328;SDS011;51941;52.210;5.158;2022-11-14T15:55:10;32.60;;;17.90;;
65328;SDS011;51941;52.210;5.158;2022-11-14T15:57:59;30.30;;;16.83;;
65328;SDS011;51941;52.210;5.158;2022-11-14T16:00:45;32.05;;;18.67;;
65328;SDS011;51941;52.210;5.158;2022-11-14T16:03:32;30.40;;;17.80;;
65328;SDS011;51941;52.210;5.158;2022-11-14T16:06:18;32.03;;;18.05;;
65328;SDS011;51941;52.210;5.158;2022-11-14T16:09:03;30.48;;;17.52;;
65328;SDS011;51941;52.210;5.158;2022-11-14T16:11:49;30.45;;;17.67;;
65328;SDS011;51941;52.210;5.158;2022-11-14T16:14:35;33.00;;;18.25;;
65328;SDS011;51941;52.210;5.158;2022-11-14T16:17:21;33.15;;;19.27;;
65328;SDS011;51941;52.210;5.158;2022-11-14T16:20:09;32.03;;;18.15;;
65328;SDS011;51941;52.210;5.158;2022-11-14T16:22:58;26.85;;;15.77;;
65328;SDS011;51941;52.210;5.158;2022-11-14T16:25:44;28.85;;;15.90;;
65328;SDS011;51941;52.210;5.158;2022-11-14T16:28:30;26.20;;;15.13;;
65328;SDS011;51941;52.210;5.158;2022-11-14T16:31:16;27.20;;;15.30;;
65328;SDS011;51941;52.210;5.158;2022-11-14T16:34:03;28.65;;;16.35;;
65328;SDS011;51941;52.210;5.158;2022-11-14T16:36:48;33.30;;;18.00;;
65328;SDS011;51941;52.210;5.158;2022-11-14T16:39:41;31.30;;;18.05;;
65328;SDS011;51941;52.210;5.158;2022-11-14T16:42:27;27.75;;;16.45;;
65328;SDS011;51941;52.210;5.158;2022-11-14T16:45:12;24.75;;;14.27;;
65328;SDS011;51941;52.210;5.158;2022-11-14T16:47:59;22.25;;;13.18;;
65328;SDS011;51941;52.210;5.158;2022-11-14T16:50:44;22.58;;;13.15;;
65328;SDS011;51941;52.210;5.158;2022-11-14T16:53:29;25.52;;;14.52;;